Time;durP1;ratioP1;P1;durP2;ratioP2;P2;SDS_P1;SDS_P2;PMS_P1;PMS_P2;Temp;Humidity;BMP_temperature;BMP_pressure;BME280_temperature;BME280_humidity;BME280_pressure;Samples;Min_cycle;Max_cycle;Signal;HPM_P1;HPM_P2
2020/12/14 00:01:17;;;;;;;21.85;10.38;;;5.10;99.90;;;;;;4970487;28;20062;-81
2020/12/14 00:03:43;;;;;;;15.10;7.45;;;5.10;99.90;;;;;;4976739;28;20035;-80
2020/12/14 00:06:09;;;;;;;15.90;7.18;;;5.10;99.90;;;;;;4967260;28;20371;-79
2020/12/14 00:08:34;;;;;;;15.25;8.70;;;5.00;99.90;;;;;;4971537;28;20497;-80
2020/12/14 00:11:00;;;;;;;10.68;5.88;;;5.00;99.90;;;;;;4956793;28;20039;-79
2020/12/14 00:13:26;;;;;;;12.88;6.85;;;5.00;99.90;;;;;;4977233;28;20035;-80
2020/12/14 00:15:52;;;;;;;10.82;5.50;;;5.00;99.90;;;;;;4978535;28;20034;-79
2020/12/14 00:18:17;;;;;;;14.48;5.72;;;4.90;99.90;;;;;;4982588;23;20035;-87
2020/12/14 00:20:43;;;;;;;11.43;6.18;;;4.80;99.90;;;;;;4972426;28;20038;-87
2020/12/14 00:23:09;;;;;;;11.65;6.82;;;4.70;99.90;;;;;;4959857;28;20069;-87
2020/12/14 00:25:34;;;;;;;11.20;6.40;;;4.60;99.90;;;;;;4980474;23;20031;-87
2020/12/14 00:28:00;;;;;;;10.35;5.45;;;4.50;99.90;;;;;;4953608;28;20098;-87
2020/12/14 00:30:26;;;;;;;9.25;4.90;;;4.40;99.90;;;;;;4926649;28;20040;-88
2020/12/14 00:32:52;;;;;;;17.42;5.38;;;4.40;99.90;;;;;;4939557;28;20031;-87
2020/12/14 00:35:18;;;;;;;13.13;4.45;;;4.40;99.90;;;;;;4938687;28;20040;-88
2020/12/14 00:37:43;;;;;;;9.23;4.82;;;4.30;99.90;;;;;;4920291;29;20046;-88
2020/12/14 00:40:09;;;;;;;9.18;4.38;;;4.20;99.90;;;;;;4927957;28;20023;-88
2020/12/14 00:42:35;;;;;;;12.40;4.10;;;4.20;99.90;;;;;;4961995;28;20031;-88
2020/12/14 00:45:01;;;;;;;7.13;4.25;;;4.10;99.90;;;;;;4933876;28;20063;-88
2020/12/14 00:47:27;;;;;;;9.02;5.13;;;4.00;99.90;;;;;;4921825;29;20066;-88
2020/12/14 00:49:53;;;;;;;10.93;6.13;;;4.00;99.90;;;;;;4940547;29;20043;-87
2020/12/14 00:52:19;;;;;;;11.63;6.15;;;4.10;99.90;;;;;;4935851;28;20036;-88
2020/12/14 00:54:45;;;;;;;13.93;6.28;;;4.10;99.90;;;;;;4953692;28;20492;-87
2020/12/14 00:57:10;;;;;;;9.35;5.72;;;4.10;99.90;;;;;;4967681;28;20035;-87
2020/12/14 00:59:36;;;;;;;14.98;6.85;;;4.00;99.90;;;;;;4922701;29;20038;-88
2020/12/14 01:02:02;;;;;;;12.82;6.57;;;3.90;99.90;;;;;;4926103;29;20039;-87
2020/12/14 01:04:28;;;;;;;13.88;7.07;;;3.90;99.90;;;;;;4952945;28;20023;-87
2020/12/14 01:06:55;;;;;;;14.98;7.38;;;3.80;99.90;;;;;;4937113;29;20476;-87
2020/12/14 01:09:21;;;;;;;14.90;7.32;;;3.80;99.90;;;;;;4950492;28;20067;-87
2020/12/14 01:11:47;;;;;;;12.52;6.65;;;3.80;99.90;;;;;;4957579;28;20038;-87
2020/12/14 01:14:13;;;;;;;16.30;7.18;;;3.80;99.90;;;;;;4933654;29;20122;-88
2020/12/14 01:16:39;;;;;;;14.65;7.53;;;3.80;99.90;;;;;;4935767;29;20460;-87
2020/12/14 01:19:04;;;;;;;17.00;7.90;;;3.80;99.90;;;;;;4952016;28;20027;-87
2020/12/14 01:21:30;;;;;;;14.02;6.72;;;3.80;99.90;;;;;;4942335;29;20404;-87
2020/12/14 01:23:56;;;;;;;14.55;7.22;;;3.80;99.90;;;;;;4969117;28;20042;-87
2020/12/14 01:26:22;;;;;;;12.77;6.32;;;3.80;99.90;;;;;;4939481;29;20075;-87
2020/12/14 01:28:47;;;;;;;12.23;5.68;;;3.70;99.90;;;;;;4933477;29;20031;-87
2020/12/14 01:31:13;;;;;;;14.63;6.47;;;3.60;99.90;;;;;;4935060;29;20062;-87
2020/12/14 01:33:39;;;;;;;11.93;6.80;;;3.70;99.90;;;;;;4936731;29;20565;-87
2020/12/14 01:36:05;;;;;;;13.98;6.63;;;3.60;99.90;;;;;;4937106;29;20408;-87
2020/12/14 01:38:31;;;;;;;15.45;7.47;;;3.70;99.90;;;;;;4935676;29;20036;-87
2020/12/14 01:40:57;;;;;;;15.48;6.80;;;3.70;99.90;;;;;;4939024;29;20167;-87
2020/12/14 01:43:23;;;;;;;17.95;8.10;;;3.60;99.90;;;;;;4952460;29;20062;-87
2020/12/14 01:45:50;;;;;;;13.40;6.47;;;3.70;99.90;;;;;;4920555;29;20098;-87
2020/12/14 01:48:17;;;;;;;9.98;5.80;;;3.60;99.90;;;;;;4921027;29;20049;-87
2020/12/14 01:50:43;;;;;;;12.90;5.85;;;3.50;99.90;;;;;;4958866;28;20035;-87
2020/12/14 01:53:10;;;;;;;13.10;6.35;;;3.50;99.90;;;;;;4932547;29;20039;-87
2020/12/14 01:55:42;;;;;;;15.43;6.75;;;3.50;99.90;;;;;;4936550;28;20039;-87
2020/12/14 01:58:11;;;;;;;15.10;7.38;;;3.50;99.90;;;;;;4967145;28;20548;-87
2020/12/14 02:00:37;;;;;;;13.52;7.03;;;3.60;99.90;;;;;;4962803;28;20034;-87
2020/12/14 02:03:03;;;;;;;11.23;5.78;;;3.60;99.90;;;;;;4946295;29;20023;-87
2020/12/14 02:05:29;;;;;;;12.95;5.93;;;3.50;99.90;;;;;;4936974;29;20485;-87
2020/12/14 02:07:54;;;;;;;11.40;6.30;;;3.50;99.90;;;;;;4948407;28;20087;-87
2020/12/14 02:10:20;;;;;;;10.50;5.00;;;3.40;99.90;;;;;;4950863;28;20045;-87
2020/12/14 02:12:46;;;;;;;11.13;5.80;;;3.40;99.90;;;;;;4953990;28;20039;-87
2020/12/14 02:15:11;;;;;;;11.60;5.93;;;3.30;99.90;;;;;;4939639;29;20039;-88
2020/12/14 02:17:38;;;;;;;10.93;5.38;;;3.30;99.90;;;;;;4938081;29;20039;-87
2020/12/14 02:20:05;;;;;;;12.40;5.50;;;3.30;99.90;;;;;;4952109;29;20443;-87
2020/12/14 02:22:31;;;;;;;11.45;6.07;;;3.40;99.90;;;;;;4932363;29;20488;-87
2020/12/14 02:24:58;;;;;;;12.88;6.25;;;3.30;99.90;;;;;;4940133;28;20032;-87
2020/12/14 02:27:26;;;;;;;11.55;5.97;;;3.30;99.90;;;;;;4940113;29;20408;-87
2020/12/14 02:29:53;;;;;;;12.77;6.22;;;3.30;99.90;;;;;;4943065;29;20043;-88
2020/12/14 02:32:19;;;;;;;13.02;6.38;;;3.30;99.90;;;;;;4938601;29;20138;-88
2020/12/14 02:34:46;;;;;;;15.00;7.05;;;3.40;99.90;;;;;;4955863;28;20039;-87
2020/12/14 02:37:14;;;;;;;13.20;6.78;;;3.50;99.90;;;;;;4970658;28;20053;-87
2020/12/14 02:39:40;;;;;;;11.82;6.03;;;3.50;99.90;;;;;;4953880;28;20027;-87
2020/12/14 02:42:09;;;;;;;12.90;6.38;;;3.40;99.90;;;;;;4928565;29;20499;-87
2020/12/14 02:44:35;;;;;;;12.50;5.88;;;3.30;99.90;;;;;;4939577;29;20031;-87
2020/12/14 02:47:00;;;;;;;10.20;5.63;;;3.30;99.90;;;;;;4923862;29;20046;-87
2020/12/14 02:49:27;;;;;;;9.55;5.30;;;3.20;99.90;;;;;;4907815;29;20043;-87
2020/12/14 02:51:53;;;;;;;11.43;5.80;;;3.20;99.90;;;;;;4952907;28;20071;-87
2020/12/14 02:54:19;;;;;;;11.38;5.85;;;3.10;99.90;;;;;;4955346;28;20484;-87
2020/12/14 02:56:45;;;;;;;11.00;5.50;;;3.20;99.90;;;;;;4936922;29;20054;-86
2020/12/14 02:59:12;;;;;;;11.82;5.80;;;3.10;99.90;;;;;;4968249;28;20030;-86
2020/12/14 03:01:38;;;;;;;13.45;6.30;;;3.10;99.90;;;;;;4936628;29;20063;-88
2020/12/14 03:04:04;;;;;;;12.38;6.18;;;3.00;99.90;;;;;;4936259;29;20127;-88
2020/12/14 03:06:30;;;;;;;14.93;6.78;;;3.00;99.90;;;;;;4939418;29;20062;-88
2020/12/14 03:08:56;;;;;;;15.95;6.25;;;3.10;99.90;;;;;;4949948;28;20071;-88
2020/12/14 03:11:22;;;;;;;12.80;7.05;;;3.10;99.90;;;;;;4946956;28;20123;-88
2020/12/14 03:13:47;;;;;;;14.02;6.82;;;3.20;99.90;;;;;;4955447;28;20408;-89
2020/12/14 03:16:13;;;;;;;15.98;7.13;;;3.20;99.90;;;;;;4939357;29;20035;-87
2020/12/14 03:18:39;;;;;;;14.20;6.78;;;3.20;99.90;;;;;;4988202;23;20049;-77
2020/12/14 03:21:06;;;;;;;15.13;6.55;;;3.20;99.90;;;;;;4988857;28;20027;-77
2020/12/14 03:23:32;;;;;;;12.10;5.82;;;3.20;99.90;;;;;;4994107;28;20042;-77
2020/12/14 03:25:58;;;;;;;13.63;7.10;;;3.10;99.90;;;;;;4984323;28;20050;-77
2020/12/14 03:28:24;;;;;;;12.23;6.15;;;3.10;99.90;;;;;;4990782;28;20081;-78
2020/12/14 03:30:50;;;;;;;14.23;6.35;;;3.10;99.90;;;;;;4974868;28;20038;-77
2020/12/14 03:33:16;;;;;;;13.43;6.72;;;3.20;99.90;;;;;;4970241;28;20523;-77
2020/12/14 03:35:41;;;;;;;12.48;6.30;;;3.20;99.90;;;;;;4994127;28;20042;-77
2020/12/14 03:38:07;;;;;;;12.35;5.80;;;3.30;99.90;;;;;;4987430;28;20038;-76
2020/12/14 03:40:33;;;;;;;11.30;5.55;;;3.30;99.90;;;;;;4982355;28;20031;-77
2020/12/14 03:42:59;;;;;;;11.55;5.53;;;3.30;99.90;;;;;;4988032;28;20034;-77
2020/12/14 03:45:24;;;;;;;12.00;6.15;;;3.30;99.90;;;;;;4993251;28;20030;-76
2020/12/14 03:47:50;;;;;;;11.32;5.88;;;3.40;99.90;;;;;;4994370;28;20026;-76
2020/12/14 03:50:16;;;;;;;15.88;7.00;;;3.50;99.90;;;;;;4975219;28;20130;-77
2020/12/14 03:52:41;;;;;;;15.38;7.22;;;3.60;99.90;;;;;;4964450;28;20044;-76
2020/12/14 03:55:07;;;;;;;10.90;6.20;;;3.60;99.90;;;;;;4993786;28;20034;-77
2020/12/14 03:57:33;;;;;;;11.57;5.65;;;3.70;99.90;;;;;;4988729;28;20746;-77
2020/12/14 03:59:59;;;;;;;10.95;5.63;;;3.60;99.90;;;;;;4978224;28;20037;-77
2020/12/14 04:02:27;;;;;;;9.00;4.55;;;3.60;99.90;;;;;;4958608;28;20065;-77
2020/12/14 04:04:53;;;;;;;10.43;5.20;;;3.50;99.90;;;;;;4993514;28;20050;-77
2020/12/14 04:07:19;;;;;;;10.50;5.15;;;3.50;99.90;;;;;;4991628;28;20038;-76
2020/12/14 04:09:45;;;;;;;8.95;5.20;;;3.60;99.90;;;;;;4982351;28;20122;-77
2020/12/14 04:12:10;;;;;;;11.30;5.95;;;3.50;99.90;;;;;;4959139;28;20035;-77
2020/12/14 04:14:36;;;;;;;10.10;5.22;;;3.50;99.90;;;;;;4989892;28;20113;-77
2020/12/14 04:17:02;;;;;;;11.77;6.03;;;3.50;99.90;;;;;;4990071;28;20043;-76
2020/12/14 04:19:27;;;;;;;12.80;6.07;;;3.70;99.90;;;;;;4984142;28;20031;-77
2020/12/14 04:21:53;;;;;;;13.98;6.38;;;3.70;99.90;;;;;;4967099;28;20034;-76
2020/12/14 04:24:19;;;;;;;11.85;6.18;;;3.80;99.90;;;;;;4992079;28;20070;-77
2020/12/14 04:26:50;;;;;;;13.30;7.13;;;3.80;99.90;;;;;;4986663;28;20034;-76
2020/12/14 04:29:16;;;;;;;10.38;5.78;;;3.80;99.90;;;;;;4984055;28;20077;-78
2020/12/14 04:31:41;;;;;;;10.25;5.45;;;3.90;99.90;;;;;;4964589;28;20039;-77
2020/12/14 04:34:07;;;;;;;13.00;6.22;;;3.90;99.90;;;;;;4981829;28;20034;-77
2020/12/14 04:36:33;;;;;;;10.80;5.97;;;3.90;99.90;;;;;;4991889;28;20106;-77
2020/12/14 04:38:58;;;;;;;9.40;5.00;;;4.00;99.90;;;;;;4965225;28;20102;-77
2020/12/14 04:41:24;;;;;;;7.57;4.75;;;3.90;99.90;;;;;;4979095;28;20077;-77
2020/12/14 04:43:51;;;;;;;10.38;6.07;;;3.90;99.90;;;;;;4992655;28;20031;-77
2020/12/14 04:46:18;;;;;;;8.98;4.90;;;3.90;99.90;;;;;;4974470;28;20034;-76
2020/12/14 04:48:44;;;;;;;8.20;4.88;;;3.90;99.90;;;;;;4987799;28;20045;-77
2020/12/14 04:51:10;;;;;;;9.02;4.85;;;4.00;99.90;;;;;;4969254;28;20034;-77
2020/12/14 04:53:40;;;;;;;11.02;5.22;;;4.00;99.90;;;;;;4956156;28;20117;-77
2020/12/14 04:56:09;;;;;;;9.20;4.63;;;4.10;99.90;;;;;;4992450;28;20492;-77
2020/12/14 04:58:35;;;;;;;8.48;4.65;;;4.10;99.90;;;;;;4985618;28;20041;-77
2020/12/14 05:01:03;;;;;;;7.75;4.65;;;4.10;99.90;;;;;;4975928;28;20030;-76
2020/12/14 05:03:29;;;;;;;11.07;5.28;;;4.20;99.90;;;;;;4990619;28;20034;-77
2020/12/14 05:05:58;;;;;;;7.93;4.72;;;4.30;99.90;;;;;;4992110;28;20068;-78
2020/12/14 05:08:29;;;;;;;10.10;5.38;;;4.30;99.90;;;;;;4987225;28;20042;-77
2020/12/14 05:10:56;;;;;;;10.73;5.35;;;4.30;99.90;;;;;;4968342;28;20042;-77
2020/12/14 05:13:26;;;;;;;9.82;5.15;;;4.30;99.90;;;;;;4971194;28;20505;-77
2020/12/14 05:15:52;;;;;;;7.65;4.40;;;4.30;99.90;;;;;;4971524;28;20047;-77
2020/12/14 05:18:22;;;;;;;8.93;5.13;;;4.20;99.90;;;;;;4961263;28;20030;-77
2020/12/14 05:20:59;;;;;;;10.88;5.43;;;4.20;99.90;;;;;;4968478;28;20036;-76
2020/12/14 05:23:26;;;;;;;10.05;5.65;;;4.20;99.90;;;;;;4991599;28;20022;-76
2020/12/14 05:26:09;;;;;;;10.05;5.00;;;4.30;99.90;;;;;;4990161;28;20399;-77
2020/12/14 05:28:35;;;;;;;10.20;4.95;;;4.30;99.90;;;;;;4989217;28;20574;-77
2020/12/14 05:31:01;;;;;;;8.15;4.75;;;4.20;99.90;;;;;;4970305;28;20067;-77
2020/12/14 05:33:29;;;;;;;7.75;4.32;;;4.30;99.90;;;;;;4969924;28;20116;-77
2020/12/14 05:35:56;;;;;;;10.00;4.78;;;4.20;99.90;;;;;;4992091;28;20035;-77
2020/12/14 05:38:23;;;;;;;6.72;4.60;;;4.20;99.90;;;;;;4986170;28;20122;-76
2020/12/14 05:40:53;;;;;;;7.78;4.60;;;4.20;99.90;;;;;;4976281;28;20031;-76
2020/12/14 05:43:24;;;;;;;7.43;4.40;;;4.20;99.90;;;;;;4990715;28;20110;-77
2020/12/14 05:45:50;;;;;;;6.20;3.75;;;4.10;99.90;;;;;;4991588;28;20029;-77
2020/12/14 05:48:28;;;;;;;7.22;4.40;;;4.10;99.90;;;;;;4987038;28;20030;-76
2020/12/14 05:51:00;;;;;;;7.38;4.53;;;4.10;99.90;;;;;;4967931;28;20046;-77
2020/12/14 05:53:39;;;;;;;6.47;3.92;;;4.10;99.90;;;;;;4972398;28;20497;-77
2020/12/14 05:56:06;;;;;;;9.20;4.78;;;4.10;99.90;;;;;;4972213;28;20038;-76
2020/12/14 05:58:33;;;;;;;8.85;4.50;;;4.10;99.90;;;;;;4980140;28;20105;-76
2020/12/14 06:01:04;;;;;;;8.60;4.78;;;4.10;99.90;;;;;;4975131;28;20098;-77
2020/12/14 06:03:30;;;;;;;10.48;5.30;;;4.20;99.90;;;;;;4972159;28;20031;-77
2020/12/14 06:06:04;;;;;;;9.48;5.18;;;4.30;99.90;;;;;;4976517;28;20045;-77
2020/12/14 06:08:42;;;;;;;8.90;5.03;;;4.30;99.90;;;;;;4988331;28;20038;-77
2020/12/14 06:11:07;;;;;;;11.02;5.95;;;4.50;99.90;;;;;;4966704;28;20035;-77
2020/12/14 06:13:48;;;;;;;12.95;6.35;;;4.60;99.90;;;;;;4972556;28;20045;-76
2020/12/14 06:16:21;;;;;;;11.20;6.47;;;4.60;99.90;;;;;;4990684;28;20104;-77
2020/12/14 06:18:47;;;;;;;10.00;6.18;;;4.60;99.90;;;;;;4982047;28;20066;-77
2020/12/14 06:21:27;;;;;;;12.77;6.70;;;4.60;99.90;;;;;;4992384;23;20078;-77
2020/12/14 06:23:55;;;;;;;11.18;6.05;;;4.60;99.90;;;;;;4988670;28;20034;-78
2020/12/14 06:26:25;;;;;;;11.65;6.45;;;4.60;99.90;;;;;;4975518;28;20085;-77
2020/12/14 06:28:52;;;;;;;12.27;6.38;;;4.70;99.90;;;;;;4993230;28;20053;-78
2020/12/14 06:31:31;;;;;;;10.57;5.80;;;4.70;99.90;;;;;;4983456;28;20046;-77
2020/12/14 06:33:57;;;;;;;11.05;6.32;;;4.70;99.90;;;;;;4968504;28;20090;-78
2020/12/14 06:36:27;;;;;;;9.77;5.72;;;4.70;99.90;;;;;;4974292;28;20038;-79
2020/12/14 06:38:53;;;;;;;9.30;5.57;;;4.70;99.90;;;;;;4974873;28;20038;-79
2020/12/14 06:41:24;;;;;;;12.02;6.45;;;4.70;99.90;;;;;;4957429;28;20074;-79
2020/12/14 06:44:12;;;;;;;13.13;6.13;;;4.70;99.90;;;;;;4958699;28;20031;-78
2020/12/14 06:46:38;;;;;;;10.77;5.93;;;4.60;99.90;;;;;;4978448;28;20086;-78
2020/12/14 06:49:09;;;;;;;10.20;5.57;;;4.60;99.90;;;;;;4977936;28;20166;-77
2020/12/14 06:51:54;;;;;;;11.93;6.45;;;4.60;99.90;;;;;;4976040;28;20386;-78
2020/12/14 06:54:40;;;;;;;15.68;7.18;;;4.70;99.90;;;;;;4972563;28;20081;-78
2020/12/14 06:57:07;;;;;;;11.93;6.30;;;4.70;99.90;;;;;;4977004;28;20053;-76
2020/12/14 06:59:32;;;;;;;12.52;7.00;;;4.70;99.90;;;;;;4976652;28;20595;-78
2020/12/14 07:02:07;;;;;;;12.07;6.20;;;4.70;99.90;;;;;;4970440;28;20058;-77
2020/12/14 07:04:33;;;;;;;15.40;7.40;;;4.60;99.90;;;;;;4971608;28;20054;-78
2020/12/14 07:07:04;;;;;;;13.57;7.00;;;4.60;99.90;;;;;;4977799;28;20027;-77
2020/12/14 07:09:38;;;;;;;11.75;6.18;;;4.60;99.90;;;;;;4977302;28;20029;-78
2020/12/14 07:12:09;;;;;;;13.35;7.22;;;4.60;99.90;;;;;;4975074;28;20066;-78
2020/12/14 07:14:46;;;;;;;12.98;7.10;;;4.70;99.90;;;;;;4972099;28;20034;-78
2020/12/14 07:17:28;;;;;;;12.23;7.10;;;4.70;99.90;;;;;;4966036;28;20035;-78
2020/12/14 07:19:56;;;;;;;14.13;7.57;;;4.70;99.90;;;;;;4976400;28;20790;-77
2020/12/14 07:22:24;;;;;;;12.60;7.00;;;4.70;99.90;;;;;;4972150;28;20026;-77
2020/12/14 07:24:51;;;;;;;11.93;6.80;;;4.70;99.90;;;;;;4958419;28;20044;-77
2020/12/14 07:27:17;;;;;;;14.38;7.55;;;4.70;99.90;;;;;;4977110;28;20037;-78
2020/12/14 07:29:43;;;;;;;12.43;7.38;;;4.70;99.90;;;;;;4974981;28;20400;-77
2020/12/14 07:32:08;;;;;;;12.50;7.32;;;4.60;99.90;;;;;;4973191;28;20097;-78
2020/12/14 07:34:34;;;;;;;11.77;6.90;;;4.70;99.90;;;;;;4955316;28;20481;-77
2020/12/14 07:37:00;;;;;;;12.73;7.47;;;4.70;99.90;;;;;;4956622;28;20114;-78
2020/12/14 07:39:26;;;;;;;16.42;8.05;;;4.60;99.90;;;;;;4956351;29;20186;-77
2020/12/14 07:41:52;;;;;;;10.80;6.18;;;4.60;99.90;;;;;;4962756;28;20097;-77
2020/12/14 07:44:25;;;;;;;10.68;6.28;;;4.70;99.90;;;;;;4970347;28;20534;-77
2020/12/14 07:46:51;;;;;;;12.73;6.95;;;4.70;99.90;;;;;;4942115;28;20142;-77
2020/12/14 07:49:22;;;;;;;11.20;6.13;;;4.70;99.90;;;;;;4969047;28;20481;-77
2020/12/14 07:51:48;;;;;;;12.55;6.55;;;4.70;99.90;;;;;;4972468;28;20030;-76
2020/12/14 07:54:16;;;;;;;11.15;6.72;;;4.70;99.90;;;;;;4969677;28;20031;-77
2020/12/14 07:56:44;;;;;;;11.88;7.03;;;4.70;99.90;;;;;;4972526;28;20041;-76
2020/12/14 07:59:26;;;;;;;10.40;6.15;;;4.70;99.90;;;;;;4973541;28;20058;-77
2020/12/14 08:01:53;;;;;;;10.38;6.18;;;4.80;99.90;;;;;;4968612;28;20105;-77
2020/12/14 08:04:39;;;;;;;10.63;5.88;;;4.80;99.90;;;;;;4972720;28;20473;-77
2020/12/14 08:07:05;;;;;;;;;;;4.80;99.90;;;;;;4973841;28;20106;-76
2020/12/14 08:09:32;;;;;;;;;;;4.70;99.90;;;;;;4973458;28;20368;-76
2020/12/14 08:11:59;;;;;;;10.77;5.60;;;4.70;99.90;;;;;;4968492;28;19910;-76
2020/12/14 08:14:25;;;;;;;9.60;5.78;;;4.80;99.90;;;;;;4969758;28;20037;-75
2020/12/14 08:16:51;;;;;;;10.95;6.43;;;4.70;99.90;;;;;;4960292;28;20027;-76
2020/12/14 08:19:21;;;;;;;11.13;5.63;;;4.80;99.90;;;;;;4954698;28;20459;-76
2020/12/14 08:22:00;;;;;;;12.70;7.13;;;4.80;99.90;;;;;;4963429;28;20035;-75
2020/12/14 08:24:27;;;;;;;9.38;5.05;;;4.80;99.90;;;;;;4964307;28;20037;-75
2020/12/14 08:27:05;;;;;;;12.48;6.88;;;4.80;99.90;;;;;;4969117;28;20026;-76
2020/12/14 08:29:32;;;;;;;11.07;6.35;;;4.80;99.90;;;;;;4973690;28;20034;-76
2020/12/14 08:32:00;;;;;;;11.45;6.68;;;4.90;99.90;;;;;;4972311;28;20109;-75
2020/12/14 08:34:36;;;;;;;11.25;6.13;;;4.90;99.90;;;;;;4970804;28;20192;-76
2020/12/14 08:37:06;;;;;;;13.02;6.72;;;4.90;99.90;;;;;;4972991;28;20042;-76
2020/12/14 08:39:32;;;;;;;12.45;6.50;;;4.90;99.90;;;;;;4945643;29;20035;-76
2020/12/14 08:42:09;;;;;;;9.90;6.47;;;4.90;99.90;;;;;;4959612;28;20019;-76
2020/12/14 08:44:37;;;;;;;11.13;5.45;;;5.00;99.90;;;;;;4961240;28;20038;-75
2020/12/14 08:47:11;;;;;;;10.55;5.43;;;5.00;99.90;;;;;;4970038;28;20050;-76
2020/12/14 08:49:37;;;;;;;12.83;5.67;;;5.00;99.90;;;;;;4972259;28;20082;-76
2020/12/14 08:52:03;;;;;;;12.18;6.03;;;5.00;99.90;;;;;;4966543;28;20027;-78
2020/12/14 08:54:29;;;;;;;9.15;5.13;;;5.00;99.90;;;;;;4964225;28;20046;-75
2020/12/14 08:56:55;;;;;;;10.20;5.40;;;5.10;99.90;;;;;;4956867;28;20042;-77
2020/12/14 08:59:25;;;;;;;12.23;5.88;;;5.10;99.90;;;;;;4968174;28;20011;-77
2020/12/14 09:02:04;;;;;;;10.60;6.22;;;5.10;99.90;;;;;;4962502;28;20465;-77
2020/12/14 09:04:36;;;;;;;13.90;6.90;;;5.10;99.90;;;;;;4946380;28;20030;-74
2020/12/14 09:07:05;;;;;;;11.05;5.32;;;5.10;99.90;;;;;;4967577;28;20045;-74
2020/12/14 09:09:38;;;;;;;10.07;5.65;;;5.10;99.90;;;;;;4969052;28;20045;-75
2020/12/14 09:12:11;;;;;;;13.30;5.93;;;5.10;99.90;;;;;;4956733;28;20490;-75
2020/12/14 09:14:37;;;;;;;11.77;6.03;;;5.20;99.90;;;;;;4961885;28;20131;-74
2020/12/14 09:17:05;;;;;;;14.13;6.53;;;5.20;99.90;;;;;;4962552;28;20374;-76
2020/12/14 09:19:33;;;;;;;11.65;5.80;;;5.20;99.90;;;;;;4961248;28;20050;-74
2020/12/14 09:22:02;;;;;;;10.85;6.38;;;5.20;99.90;;;;;;4959938;28;20043;-74
2020/12/14 09:24:29;;;;;;;9.30;4.85;;;5.20;99.90;;;;;;4967107;28;20569;-75
2020/12/14 09:27:12;;;;;;;10.95;5.53;;;5.20;99.90;;;;;;4959715;28;20027;-75
2020/12/14 09:29:39;;;;;;;9.35;5.28;;;5.20;99.90;;;;;;4960723;28;20031;-75
2020/12/14 09:32:07;;;;;;;10.02;5.57;;;5.30;99.90;;;;;;4964406;28;20037;-75
2020/12/14 09:34:32;;;;;;;10.18;4.85;;;5.30;99.90;;;;;;4964696;28;20027;-75
2020/12/14 09:36:59;;;;;;;11.38;6.00;;;5.30;99.90;;;;;;4959899;28;20030;-75
2020/12/14 09:39:27;;;;;;;7.15;4.65;;;5.30;99.90;;;;;;4956043;28;20500;-75
2020/12/14 09:41:56;;;;;;;10.23;5.32;;;5.30;99.90;;;;;;4956253;28;20031;-75
2020/12/14 09:44:23;;;;;;;11.57;5.35;;;5.40;99.90;;;;;;4965167;28;20680;-75
2020/12/14 09:46:49;;;;;;;9.25;5.50;;;5.40;99.90;;;;;;4958140;28;20041;-75
2020/12/14 09:49:15;;;;;;;12.32;5.40;;;5.40;99.90;;;;;;4941399;28;20126;-75
2020/12/14 09:51:41;;;;;;;11.68;5.35;;;5.40;99.90;;;;;;4946415;28;20118;-75
2020/12/14 09:54:07;;;;;;;12.02;5.72;;;5.40;99.90;;;;;;4954075;28;20147;-76
2020/12/14 09:56:33;;;;;;;8.70;4.88;;;5.50;99.90;;;;;;4957107;28;20066;-75
2020/12/14 09:59:00;;;;;;;9.02;5.35;;;5.50;99.90;;;;;;4965797;28;20047;-75
2020/12/14 10:01:28;;;;;;;10.88;5.63;;;5.50;99.90;;;;;;4953014;28;20094;-75
2020/12/14 10:03:54;;;;;;;9.90;5.07;;;5.50;99.90;;;;;;4957415;28;20039;-74
2020/12/14 10:06:20;;;;;;;10.10;5.07;;;5.50;99.90;;;;;;4961429;28;20397;-76
2020/12/14 10:08:46;;;;;;;11.63;5.45;;;5.50;99.90;;;;;;4952239;28;20035;-75
2020/12/14 10:11:12;;;;;;;8.80;5.15;;;5.50;99.90;;;;;;4955084;28;20042;-75
2020/12/14 10:13:41;;;;;;;12.70;5.28;;;5.50;99.90;;;;;;4957311;28;20030;-75
2020/12/14 10:16:08;;;;;;;9.65;5.50;;;5.50;99.90;;;;;;4964006;28;20481;-76
2020/12/14 10:18:34;;;;;;;9.90;4.85;;;5.40;99.90;;;;;;4961080;28;20035;-76
2020/12/14 10:21:03;;;;;;;11.38;5.05;;;5.40;99.90;;;;;;4964365;28;20509;-76
2020/12/14 10:23:29;;;;;;;11.23;6.07;;;5.40;99.90;;;;;;4956996;28;20043;-76
2020/12/14 10:25:55;;;;;;;8.95;4.85;;;5.30;99.90;;;;;;4954121;28;20031;-75
2020/12/14 10:28:21;;;;;;;10.05;5.18;;;5.40;99.90;;;;;;4945440;28;20030;-76
2020/12/14 10:30:47;;;;;;;11.27;5.28;;;5.30;99.90;;;;;;4963734;28;20379;-76
2020/12/14 10:33:13;;;;;;;12.15;5.32;;;5.30;99.90;;;;;;4959435;28;20030;-76
2020/12/14 10:35:39;;;;;;;11.88;5.72;;;5.30;99.90;;;;;;4978498;28;20039;-75
2020/12/14 10:38:05;;;;;;;9.43;4.55;;;5.30;99.90;;;;;;4967362;28;20066;-75
2020/12/14 10:40:31;;;;;;;8.18;4.22;;;5.30;99.90;;;;;;4959014;28;20027;-76
2020/12/14 10:42:56;;;;;;;7.72;4.72;;;5.30;99.90;;;;;;4962390;28;20035;-76
2020/12/14 10:45:23;;;;;;;9.50;4.70;;;5.20;99.90;;;;;;4959856;28;20119;-75
2020/12/14 10:47:49;;;;;;;8.25;4.38;;;5.30;99.90;;;;;;4972117;28;20117;-75
2020/12/14 10:50:16;;;;;;;8.95;5.10;;;5.20;99.90;;;;;;4971906;28;20153;-76
2020/12/14 10:52:42;;;;;;;10.73;4.78;;;5.20;99.90;;;;;;4953855;28;20125;-75
2020/12/14 10:55:08;;;;;;;8.25;4.70;;;5.30;99.90;;;;;;4952406;28;20118;-76
2020/12/14 10:57:34;;;;;;;7.88;3.92;;;5.30;99.90;;;;;;4962482;28;20049;-76
2020/12/14 11:00:10;;;;;;;9.52;4.38;;;5.30;99.90;;;;;;4946296;28;20034;-75
2020/12/14 11:02:39;;;;;;;9.05;4.70;;;5.40;99.90;;;;;;4963165;28;20122;-73
2020/12/14 11:05:07;;;;;;;8.90;4.90;;;5.40;99.90;;;;;;4961869;28;20110;-75
2020/12/14 11:07:33;;;;;;;8.63;4.03;;;5.50;99.90;;;;;;4965818;28;20505;-75
2020/12/14 11:09:59;;;;;;;8.05;4.35;;;5.50;99.90;;;;;;4969292;28;20039;-75
2020/12/14 11:12:26;;;;;;;8.07;4.07;;;5.50;99.90;;;;;;4968474;28;20059;-75
2020/12/14 11:14:53;;;;;;;7.72;4.55;;;5.50;99.90;;;;;;4955107;28;20049;-76
2020/12/14 11:17:19;;;;;;;9.68;4.70;;;5.50;99.90;;;;;;4973036;28;20081;-75
2020/12/14 11:19:45;;;;;;;9.00;4.30;;;5.50;99.90;;;;;;4974616;28;20074;-75
2020/12/14 11:22:11;;;;;;;11.23;4.68;;;5.50;99.90;;;;;;4970372;28;20030;-76
2020/12/14 11:24:37;;;;;;;6.88;3.70;;;5.60;99.90;;;;;;4971465;28;20390;-76
2020/12/14 11:27:03;;;;;;;9.00;4.65;;;5.60;99.90;;;;;;4961205;28;20058;-75
2020/12/14 11:29:29;;;;;;;10.23;5.05;;;5.60;99.90;;;;;;4974447;28;20778;-76
2020/12/14 11:31:55;;;;;;;9.73;4.60;;;5.70;99.90;;;;;;4961891;28;20473;-75
2020/12/14 11:34:21;;;;;;;8.43;4.85;;;5.70;99.90;;;;;;4965463;28;20033;-75
2020/12/14 11:36:47;;;;;;;9.70;4.80;;;5.70;99.90;;;;;;4964778;28;20039;-75
2020/12/14 11:39:13;;;;;;;7.47;4.22;;;5.70;99.90;;;;;;4973287;28;20077;-76
2020/12/14 11:41:38;;;;;;;9.25;4.47;;;5.80;99.90;;;;;;4965234;28;20030;-75
2020/12/14 11:44:04;;;;;;;9.93;4.78;;;5.80;99.90;;;;;;4966207;28;20498;-75
2020/12/14 11:46:30;;;;;;;10.10;5.07;;;5.80;99.90;;;;;;4972144;28;20039;-75
2020/12/14 11:48:56;;;;;;;9.23;5.03;;;5.80;99.90;;;;;;4964732;28;20038;-75
2020/12/14 11:51:23;;;;;;;9.85;4.60;;;5.80;99.90;;;;;;4958159;28;20038;-75
2020/12/14 11:53:49;;;;;;;9.73;4.82;;;5.80;99.90;;;;;;4968440;28;20489;-75
2020/12/14 11:56:15;;;;;;;9.02;4.78;;;5.80;99.90;;;;;;4949035;28;20038;-75
2020/12/14 11:58:41;;;;;;;8.95;4.57;;;5.80;99.90;;;;;;4962980;28;20038;-75
2020/12/14 12:01:07;;;;;;;10.40;5.15;;;5.80;99.90;;;;;;4965968;28;20565;-74
2020/12/14 12:03:33;;;;;;;8.68;4.68;;;5.80;99.90;;;;;;4954374;28;20105;-75
2020/12/14 12:05:59;;;;;;;9.00;4.55;;;5.90;99.90;;;;;;4957053;28;20027;-75
2020/12/14 12:08:24;;;;;;;8.27;4.00;;;5.80;99.90;;;;;;4965826;28;20047;-75
2020/12/14 12:10:51;;;;;;;10.57;4.47;;;5.80;99.90;;;;;;4963644;28;20031;-74
2020/12/14 12:13:17;;;;;;;9.10;4.70;;;5.80;99.90;;;;;;4941036;29;20027;-75
2020/12/14 12:15:43;;;;;;;7.53;4.57;;;5.80;99.90;;;;;;4952984;28;20031;-74
2020/12/14 12:18:09;;;;;;;9.52;4.32;;;5.70;99.90;;;;;;4950256;29;20382;-74
2020/12/14 12:20:35;;;;;;;8.55;4.43;;;5.70;99.90;;;;;;4961170;28;20073;-74
2020/12/14 12:23:01;;;;;;;8.98;4.35;;;5.60;99.90;;;;;;4989731;23;20047;-76
2020/12/14 12:25:27;;;;;;;9.07;4.30;;;5.60;99.90;;;;;;4973468;28;20110;-76
2020/12/14 12:27:52;;;;;;;6.70;3.92;;;5.60;99.90;;;;;;4988273;28;20038;-77
2020/12/14 12:30:18;;;;;;;8.00;4.85;;;5.70;99.90;;;;;;4988427;28;20057;-76
2020/12/14 12:32:44;;;;;;;7.50;4.22;;;5.70;99.90;;;;;;4975087;28;20030;-76
2020/12/14 12:35:11;;;;;;;8.32;5.07;;;5.70;99.90;;;;;;4962248;28;20058;-76
2020/12/14 12:37:37;;;;;;;7.22;4.20;;;5.70;99.90;;;;;;4987008;28;20050;-76
2020/12/14 12:40:06;;;;;;;8.07;4.25;;;5.70;99.90;;;;;;4988182;28;20392;-76
2020/12/14 12:42:32;;;;;;;9.60;5.63;;;5.80;99.90;;;;;;4983360;28;20027;-77
2020/12/14 12:44:58;;;;;;;7.47;4.10;;;5.80;99.90;;;;;;4970211;28;20019;-76
2020/12/14 12:47:24;;;;;;;8.00;4.55;;;5.80;99.90;;;;;;4961286;28;20678;-76
2020/12/14 12:49:50;;;;;;;8.65;4.50;;;5.80;99.90;;;;;;4988118;28;20058;-76
2020/12/14 12:52:15;;;;;;;9.10;4.50;;;5.80;99.90;;;;;;4976874;28;20060;-76